.
WxDataArchive / Data Records for 2015-02-19
2015-02-18 February 2015 2015-02-20

Data Records for Thursday, 19 February 2015

Time	Temp	Chill	HIndex	Humid	Dewpt	 Wind 	HiWind	WindDir	Rain 	Barom
-----	----	-----	------	-----	-----	------	------	-------	-----	-----
00:00	1.7	1.7	1.7	65	-7.3	1	4	270	0.00	30.169 
00:05	1.5	1.5	1.5	65	-7.5	1	3	270	0.00	30.169 
00:10	1.5	1.5	1.5	65	-7.5	1	4	270	0.00	30.169 
00:15	1.5	1.5	1.5	65	-7.5	2	4	270	0.00	30.169 
00:20	1.3	1.3	1.3	65	-7.7	1	5	270	0.00	30.169 
00:25	1.3	1.3	1.3	65	-7.7	1	4	270	0.00	30.169 
00:30	1.3	1.3	1.3	65	-7.7	2	4	270	0.00	30.171 
00:35	1.3	1.3	1.3	65	-7.7	2	4	270	0.00	30.171 
00:40	1.1	1.1	1.1	65	-7.9	1	3	270	0.00	30.171 
00:45	1.1	1.1	1.1	65	-7.9	1	3	270	0.00	30.169 
00:50	1.1	1.1	1.1	65	-7.9	1	4	270	0.00	30.169 
00:55	0.9	0.9	0.9	65	-8.1	1	3	270	0.00	30.169 
01:00	0.9	0.9	0.9	65	-8.1	1	2	270	0.00	30.170 
01:05	0.9	0.9	0.9	65	-8.1	1	4	292	0.00	30.170 
01:10	0.9	0.9	0.9	65	-8.1	2	5	270	0.00	30.170 
01:15	0.9	0.9	0.9	65	-8.1	1	4	270	0.00	30.170 
01:20	0.7	0.7	0.7	65	-8.3	1	3	270	0.00	30.170 
01:25	0.7	0.7	0.7	65	-8.3	1	3	270	0.00	30.170 
01:30	0.7	0.7	0.7	65	-8.3	1	4	270	0.00	30.174 
01:35	0.5	0.5	0.5	65	-8.5	1	3	292	0.00	30.174 
01:40	0.5	0.5	0.5	65	-8.5	1	4	270	0.00	30.174 
01:45	0.5	0.5	0.5	65	-8.5	1	3	270	0.00	30.172 
01:50	0.5	0.5	0.5	65	-8.5	1	3	270	0.00	30.172 
01:55	0.3	0.3	0.3	65	-8.6	1	3	270	0.00	30.172 
02:00	0.3	0.3	0.3	65	-8.6	2	4	270	0.00	30.175 
02:05	0.3	0.3	0.3	65	-8.6	1	3	270	0.00	30.175 
02:10	0.1	0.1	0.1	65	-8.8	1	4	270	0.00	30.175 
02:15	0.1	0.1	0.1	65	-8.8	1	3	270	0.00	30.176 
02:20	0.0	0.0	0.0	65	-8.9	1	2	270	0.00	30.176 
02:25	0.0	0.0	0.0	66	-8.6	1	5	270	0.00	30.176 
02:30	0.0	0.0	0.0	66	-8.6	1	3	270	0.00	30.181 
02:35	0.0	0.0	0.0	66	-8.6	1	3	270	0.00	30.181 
02:40	-0.2	-0.2	-0.2	66	-8.8	1	2	270	0.00	30.181 
02:45	-0.2	-0.2	-0.2	66	-8.8	2	4	270	0.00	30.181 
02:50	-0.2	-0.2	-0.2	66	-8.8	1	4	270	0.00	30.181 
02:55	-0.2	-0.2	-0.2	66	-8.8	1	3	270	0.00	30.181 
03:00	-0.4	-0.4	-0.4	66	-9.0	1	3	270	0.00	30.183 
03:05	-0.4	-0.4	-0.4	66	-9.0	1	4	270	0.00	30.183 
03:10	-0.4	-0.4	-0.4	66	-9.0	1	3	270	0.00	30.183 
03:15	-0.4	-0.4	-0.4	66	-9.0	1	4	270	0.00	30.181 
03:20	-0.6	-0.6	-0.6	66	-9.2	1	3	270	0.00	30.181 
03:25	-0.6	-0.6	-0.6	66	-9.2	1	2	270	0.00	30.181 
03:30	-0.6	-0.6	-0.6	66	-9.2	1	2	270	0.00	30.180 
03:35	-0.8	-0.8	-0.8	67	-9.1	1	3	270	0.00	30.180 
03:40	-0.8	-0.8	-0.8	67	-9.1	1	3	270	0.00	30.180 
03:45	-0.8	-0.8	-0.8	67	-9.1	1	3	270	0.00	30.181 
03:50	-0.8	-0.8	-0.8	67	-9.1	1	4	270	0.00	30.181 
03:55	-0.8	-0.8	-0.8	67	-9.1	1	3	248	0.00	30.181 
04:00	-1.0	-1.0	-1.0	67	-9.3	1	3	248	0.00	30.183 
04:05	-1.0	-1.0	-1.0	67	-9.3	1	3	248	0.00	30.183 
04:10	-1.0	-1.0	-1.0	67	-9.3	1	3	248	0.00	30.183 
04:15	-1.0	-1.0	-1.0	67	-9.3	0	1	248	0.00	30.186 
04:20	-1.0	-1.0	-1.0	67	-9.3	1	3	248	0.00	30.186 
04:25	-1.2	-1.2	-1.2	67	-9.5	0	2	248	0.00	30.186 
04:30	-1.2	-1.2	-1.2	67	-9.5	1	2	248	0.00	30.187 
04:35	-1.2	-1.2	-1.2	67	-9.5	0	2	248	0.00	30.187 
04:40	-1.2	-1.2	-1.2	67	-9.5	0	2	248	0.00	30.187 
04:45	-1.4	-1.4	-1.4	67	-9.7	1	2	248	0.00	30.187 
04:50	-1.4	-1.4	-1.4	67	-9.7	0	2	248	0.00	30.187 
04:55	-1.4	-1.4	-1.4	67	-9.7	0	2	248	0.00	30.187 
05:00	-1.4	-1.4	-1.4	67	-9.7	1	3	248	0.00	30.188 
05:05	-1.4	-1.4	-1.4	67	-9.7	0	2	248	0.00	30.188 
05:10	-1.6	-1.6	-1.6	67	-9.8	0	2	248	0.00	30.188 
05:15	-1.6	-1.6	-1.6	67	-9.8	1	3	248	0.00	30.193 
05:20	-1.6	-1.6	-1.6	67	-9.8	1	4	248	0.00	30.193 
05:25	-1.6	-1.6	-1.6	67	-9.8	1	3	270	0.00	30.193 
05:30	-1.6	-1.6	-1.6	67	-9.8	1	2	270	0.00	30.196 
05:35	-1.6	-1.6	-1.6	66	-10.2	0	2	270	0.00	30.196 
05:40	-1.6	-1.6	-1.6	66	-10.2	1	3	270	0.00	30.196 
05:45	-1.6	-1.6	-1.6	66	-10.2	2	3	270	0.00	30.205 
05:50	-1.6	-1.6	-1.6	66	-10.2	1	3	270	0.00	30.205 
05:55	-1.8	-1.8	-1.8	66	-10.3	1	3	270	0.00	30.205 
06:00	-1.8	-1.8	-1.8	65	-10.6	0	2	270	0.00	30.205 
06:05	-1.8	-1.8	-1.8	65	-10.6	0	2	270	0.00	30.205 
06:10	-1.8	-1.8	-1.8	65	-10.6	1	4	270	0.00	30.205 
06:15	-1.8	-1.8	-1.8	65	-10.6	1	2	270	0.00	30.208 
06:20	-2.0	-2.0	-2.0	65	-10.8	1	3	270	0.00	30.208 
06:25	-2.0	-2.0	-2.0	65	-10.8	1	3	248	0.00	30.208 
06:30	-2.0	-2.0	-2.0	65	-10.8	1	3	248	0.00	30.208 
06:35	-2.0	-2.0	-2.0	65	-10.8	1	2	248	0.00	30.208 
06:40	-2.0	-2.0	-2.0	65	-10.8	1	3	248	0.00	30.208 
06:45	-2.0	-2.0	-2.0	65	-10.8	0	2	248	0.00	30.218 
06:50	-2.0	-2.0	-2.0	65	-10.8	1	2	248	0.00	30.218 
06:55	-2.0	-2.0	-2.0	65	-10.8	1	2	248	0.00	30.218 
07:00	-2.0	-2.0	-2.0	65	-10.8	1	3	248	0.00	30.221 
07:05	-2.0	-2.0	-2.0	65	-10.8	1	3	248	0.00	30.221 
07:10	-2.2	-2.2	-2.2	65	-11.0	1	3	248	0.00	30.221 
07:15	-2.2	-2.2	-2.2	65	-11.0	0	2	248	0.00	30.227 
07:20	-2.2	-2.2	-2.2	65	-11.0	1	2	248	0.00	30.227 
07:25	-2.2	-2.2	-2.2	65	-11.0	1	2	248	0.00	30.227 
07:30	-2.2	-2.2	-2.2	65	-11.0	0	2	248	0.00	30.240 
07:35	-2.2	-2.2	-2.2	66	-10.7	1	3	248	0.00	30.240 
07:40	-2.0	-2.0	-2.0	66	-10.5	1	3	270	0.00	30.240 
07:45	-2.0	-2.0	-2.0	66	-10.5	1	2	270	0.00	30.244 
07:50	-2.0	-2.0	-2.0	65	-10.8	1	3	270	0.00	30.244 
07:55	-2.0	-2.0	-2.0	66	-10.5	1	2	270	0.00	30.244 
08:00	-1.8	-1.8	-1.8	66	-10.3	1	3	270	0.00	30.255 
08:05	-1.8	-1.8	-1.8	66	-10.3	0	2	270	0.00	30.255 
08:10	-1.6	-1.6	-1.6	66	-10.2	1	4	270	0.00	30.255 
08:15	-1.4	-1.4	-1.4	66	-10.0	1	5	315	0.00	30.259 
08:20	-1.4	-1.4	-1.4	65	-10.3	1	2	248	0.00	30.259 
08:25	-1.2	-1.2	-1.2	65	-10.1	1	3	270	0.00	30.259 
08:30	-1.2	-1.2	-1.2	65	-10.1	1	5	270	0.00	30.266 
08:35	-1.2	-1.2	-1.2	65	-10.1	1	2	292	0.00	30.266 
08:40	-1.0	-1.0	-1.0	65	-9.9	1	4	292	0.00	30.266 
08:45	-0.8	-0.8	-0.8	65	-9.7	1	3	270	0.00	30.272 
08:50	-0.8	-0.8	-0.8	65	-9.7	1	3	270	0.00	30.272 
08:55	-0.6	-0.6	-0.6	65	-9.5	2	5	292	0.00	30.272 
09:00	-0.6	-0.6	-0.6	65	-9.5	1	5	292	0.00	30.279 
09:05	-0.6	-0.6	-0.6	65	-9.5	1	4	270	0.00	30.279 
09:10	-0.4	-0.4	-0.4	65	-9.3	0	3	270	0.00	30.279 
09:15	-0.2	-0.2	-0.2	65	-9.1	0	2	270	0.00	30.286 
09:20	0.0	0.0	0.0	65	-8.9	0	3	270	0.00	30.286 
09:25	0.3	0.3	0.3	65	-8.6	1	3	270	0.00	30.286 
09:30	0.9	0.9	0.9	64	-8.4	1	4	270	0.00	30.289 
09:35	1.3	1.3	1.3	64	-8.0	1	4	270	0.00	30.289 
09:40	1.8	1.8	1.8	63	-7.8	1	4	270	0.00	30.289 
09:45	1.8	1.8	1.8	62	-8.2	0	2	270	0.00	30.289 
09:50	2.2	2.2	2.2	62	-7.8	1	4	270	0.00	30.289 
09:55	2.4	2.4	2.4	61	-7.9	1	3	270	0.00	30.289 
10:00	2.6	2.6	2.6	61	-7.7	2	4	248	0.00	30.291 
10:05	3.0	3.0	3.0	61	-7.4	1	4	248	0.00	30.291 
10:10	3.2	3.2	3.2	60	-7.5	1	4	248	0.00	30.291 
10:15	3.5	3.5	3.5	60	-7.2	1	4	292	0.00	30.296 
10:20	3.7	3.7	3.7	60	-7.0	1	3	315	0.00	30.296 
10:25	3.9	3.9	3.9	59	-7.2	1	4	270	0.00	30.296 
10:30	4.1	4.1	4.1	59	-7.0	1	3	270	0.00	30.298 
10:35	4.3	4.3	4.3	58	-7.2	1	3	270	0.00	30.298 
10:40	4.5	4.5	4.5	58	-7.0	2	4	270	0.00	30.298 
10:45	4.5	4.5	4.5	57	-7.3	1	6	270	0.00	30.300 
10:50	4.5	4.5	4.5	57	-7.3	1	5	270	0.00	30.300 
10:55	4.8	4.8	4.8	58	-6.7	1	4	270	0.00	30.300 
11:00	4.8	4.8	4.8	57	-7.0	2	3	270	0.00	30.300 
11:05	5.0	5.0	5.0	57	-6.9	2	6	270	0.00	30.300 
11:10	5.2	5.2	5.2	57	-6.7	2	5	270	0.00	30.300 
11:15	5.4	5.4	5.4	56	-6.8	2	4	270	0.00	30.301 
11:20	5.6	5.6	5.6	56	-6.7	2	6	270	0.00	30.301 
11:25	5.6	5.6	5.6	55	-7.0	2	5	315	0.00	30.301 
11:30	5.6	5.6	5.6	56	-6.7	2	5	315	0.00	30.300 
11:35	5.8	5.8	5.8	56	-6.5	2	5	270	0.00	30.300 
11:40	5.8	5.8	5.8	56	-6.5	2	6	292	0.00	30.300 
11:45	6.3	6.3	6.3	56	-6.0	1	3	248	0.00	30.302 
11:50	6.3	6.3	6.3	55	-6.4	2	5	270	0.00	30.302 
11:55	6.1	6.1	6.1	54	-6.9	3	6	270	0.00	30.302 
12:00	6.0	6.0	6.0	55	-6.7	2	4	270	0.00	30.305 
12:05	5.8	5.8	5.8	55	-6.8	2	5	292	0.00	30.305 
12:10	5.8	5.8	5.8	56	-6.5	1	5	270	0.00	30.305 
12:15	5.6	5.6	5.6	54	-7.4	2	4	292	0.00	30.315 
12:20	5.8	5.8	5.8	55	-6.8	2	4	270	0.00	30.315 
12:25	6.0	6.0	6.0	54	-7.0	1	4	248	0.00	30.315 
12:30	6.0	6.0	6.0	54	-7.0	2	7	292	0.00	30.312 
12:35	6.0	6.0	6.0	53	-7.4	2	6	270	0.00	30.312 
12:40	6.3	6.3	6.3	54	-6.7	2	5	270	0.00	30.312 
12:45	7.0	7.0	7.0	54	-6.1	2	5	270	0.00	30.311 
12:50	6.9	6.9	6.9	52	-7.0	2	5	315	0.00	30.311 
12:55	6.0	6.0	6.0	53	-7.4	3	6	315	0.00	30.311 
13:00	6.3	6.3	6.3	54	-6.7	2	5	270	0.00	30.307 
13:05	6.5	6.5	6.5	54	-6.6	1	4	315	0.00	30.307 
13:10	6.7	6.7	6.7	52	-7.1	2	7	292	0.00	30.307 
13:15	6.7	6.7	6.7	52	-7.1	2	5	270	0.00	30.304 
13:20	6.7	6.7	6.7	53	-6.8	2	6	270	0.00	30.304 
13:25	6.5	6.5	6.5	52	-7.3	3	7	270	0.00	30.304 
13:30	6.5	6.5	6.5	51	-7.7	3	6	270	0.00	30.304 
13:35	7.0	7.0	7.0	51	-7.3	3	5	248	0.00	30.304 
13:40	7.4	7.4	7.4	50	-7.3	2	9	248	0.00	30.304 
13:45	7.0	7.0	7.0	51	-7.3	3	10	270	0.00	30.304 
13:50	6.9	6.9	6.9	51	-7.4	3	6	270	0.00	30.304 
13:55	6.9	6.9	6.9	52	-7.0	2	5	248	0.00	30.304 
14:00	7.4	7.4	7.4	51	-6.9	2	6	248	0.00	30.301 
14:05	7.9	7.9	7.9	50	-6.8	2	5	270	0.00	30.301 
14:10	8.3	8.3	8.3	49	-6.9	3	6	270	0.00	30.301 
14:15	8.1	0.5	8.1	47	-7.9	4	7	270	0.00	30.292 
14:20	8.1	8.1	8.1	49	-7.1	2	7	292	0.00	30.292 
14:25	7.7	7.7	7.7	48	-7.9	3	5	270	0.00	30.292 
14:30	7.7	7.7	7.7	50	-7.0	3	6	292	0.00	30.293 
14:35	7.6	-0.1	7.6	47	-8.4	4	7	270	0.00	30.293 
14:40	7.7	7.7	7.7	48	-7.9	3	6	248	0.00	30.293 
14:45	7.9	7.9	7.9	47	-8.1	3	9	270	0.00	30.294 
14:50	8.1	8.1	8.1	48	-7.5	3	7	270	0.00	30.294 
14:55	8.1	8.1	8.1	51	-6.2	3	7	270	0.00	30.294 
15:00	7.6	7.6	7.6	52	-6.3	3	7	270	0.00	30.297 
15:05	7.6	7.6	7.6	51	-6.7	2	5	270	0.00	30.297 
15:10	7.9	7.9	7.9	51	-6.4	2	4	248	0.00	30.297 
15:15	8.4	8.4	8.4	49	-6.8	3	8	270	0.00	30.300 
15:20	8.1	8.1	8.1	47	-7.9	3	6	270	0.00	30.300 
15:25	8.3	8.3	8.3	46	-8.2	3	5	270	0.00	30.300 
15:30	8.6	8.6	8.6	46	-7.9	2	5	248	0.00	30.299 
15:35	8.3	0.7	8.3	43	-9.5	4	8	270	0.00	30.299 
15:40	7.7	0.0	7.7	44	-9.6	4	7	270	0.00	30.299 
15:45	7.2	-0.6	7.2	45	-9.6	4	9	270	0.00	30.304 
15:50	7.2	-0.6	7.2	45	-9.6	4	9	270	0.00	30.304 
15:55	7.2	7.2	7.2	46	-9.2	3	6	270	0.00	30.304 
16:00	7.4	7.4	7.4	45	-9.4	3	7	270	0.00	30.309 
16:05	7.0	7.0	7.0	45	-9.8	3	11	292	0.00	30.309 
16:10	6.9	-0.9	6.9	46	-9.5	4	7	270	0.00	30.309 
16:15	6.7	-1.1	6.7	46	-9.6	4	9	270	0.00	30.317 
16:20	6.5	6.5	6.5	48	-9.0	3	6	270	0.00	30.317 
16:25	6.3	-1.6	6.3	47	-9.6	4	10	270	0.00	30.317 
16:30	6.3	6.3	6.3	47	-9.6	3	6	292	0.00	30.320 
16:35	6.3	6.3	6.3	48	-9.1	3	7	270	0.00	30.320 
16:40	6.3	6.3	6.3	49	-8.7	3	7	270	0.00	30.320 
16:45	6.3	6.3	6.3	49	-8.7	2	5	270	0.00	30.321 
16:50	6.0	6.0	6.0	50	-8.6	3	9	270	0.00	30.321 
16:55	5.8	5.8	5.8	50	-8.8	3	9	270	0.00	30.321 
17:00	5.6	5.6	5.6	50	-9.0	3	6	270	0.00	30.320 
17:05	5.6	5.6	5.6	50	-9.0	3	7	270	0.00	30.320 
17:10	5.4	5.4	5.4	50	-9.2	3	6	270	0.00	30.320 
17:15	5.4	5.4	5.4	52	-8.4	2	4	270	0.00	30.328 
17:20	5.4	5.4	5.4	52	-8.4	2	5	270	0.00	30.328 
17:25	5.0	5.0	5.0	54	-8.0	3	11	292	0.00	30.328 
17:30	4.8	4.8	4.8	57	-7.0	2	6	270	0.00	30.333 
17:35	4.8	4.8	4.8	56	-7.4	2	4	248	0.00	30.333 
17:40	4.7	4.7	4.7	56	-7.5	3	6	248	0.00	30.333 
17:45	4.5	4.5	4.5	58	-7.0	3	6	270	0.00	30.337 
17:50	4.1	4.1	4.1	60	-6.7	3	6	248	0.00	30.337 
17:55	4.1	4.1	4.1	62	-6.0	1	3	270	0.00	30.337 
18:00	4.1	4.1	4.1	62	-6.0	2	6	270	0.00	30.338 
18:05	4.1	4.1	4.1	62	-6.0	1	4	248	0.00	30.338 
18:10	3.9	3.9	3.9	61	-6.5	3	6	270	0.00	30.338 
18:15	3.7	3.7	3.7	60	-7.0	2	5	270	0.00	30.341 
18:20	3.7	3.7	3.7	60	-7.0	3	5	270	0.00	30.341 
18:25	3.5	3.5	3.5	60	-7.2	2	6	270	0.00	30.341 
18:30	3.5	3.5	3.5	61	-6.9	2	5	270	0.00	30.341 
18:35	3.5	3.5	3.5	61	-6.9	1	4	270	0.00	30.341 
18:40	3.4	3.4	3.4	61	-7.0	1	4	270	0.00	30.341 
18:45	3.4	3.4	3.4	61	-7.0	2	4	270	0.00	30.353 
18:50	3.2	3.2	3.2	61	-7.2	2	4	292	0.00	30.353 
18:55	3.2	3.2	3.2	62	-6.8	2	4	248	0.00	30.353 
19:00	3.2	3.2	3.2	62	-6.8	1	4	248	0.00	30.357 
19:05	3.0	3.0	3.0	62	-7.0	2	4	248	0.00	30.357 
19:10	3.0	3.0	3.0	62	-7.0	2	4	248	0.00	30.357 
19:15	3.0	3.0	3.0	62	-7.0	1	3	248	0.00	30.358 
19:20	2.8	2.8	2.8	61	-7.6	2	5	270	0.00	30.358 
19:25	2.8	2.8	2.8	60	-7.9	2	6	270	0.00	30.358 
19:30	2.8	2.8	2.8	59	-8.2	2	6	248	0.00	30.364 
19:35	2.8	2.8	2.8	58	-8.6	2	5	270	0.00	30.364 
19:40	2.6	2.6	2.6	58	-8.8	1	3	270	0.00	30.364 
19:45	2.6	2.6	2.6	58	-8.8	1	3	270	0.00	30.366 
19:50	2.6	2.6	2.6	57	-9.1	2	4	270	0.00	30.366 
19:55	2.4	2.4	2.4	57	-9.3	1	4	270	0.00	30.366 
20:00	2.4	2.4	2.4	57	-9.3	2	4	292	0.00	30.365 
20:05	2.4	2.4	2.4	57	-9.3	2	5	248	0.00	30.365 
20:10	2.4	2.4	2.4	57	-9.3	2	4	248	0.00	30.365 
20:15	2.2	2.2	2.2	57	-9.5	1	3	248	0.00	30.364 
20:20	2.2	2.2	2.2	57	-9.5	1	3	248	0.00	30.364 
20:25	2.2	2.2	2.2	57	-9.5	1	3	248	0.00	30.364 
20:30	2.0	2.0	2.0	57	-9.7	1	3	248	0.00	30.365 
20:35	2.0	2.0	2.0	57	-9.7	1	4	248	0.00	30.365 
20:40	2.0	2.0	2.0	57	-9.7	1	3	248	0.00	30.365 
20:45	1.8	1.8	1.8	58	-9.5	1	4	248	0.00	30.370 
20:50	1.8	1.8	1.8	58	-9.5	1	3	248	0.00	30.370 
20:55	1.8	1.8	1.8	58	-9.5	1	3	248	0.00	30.370 
21:00	1.7	1.7	1.7	58	-9.6	1	3	248	0.00	30.372 
21:05	1.7	1.7	1.7	58	-9.6	1	3	248	0.00	30.372 
21:10	1.7	1.7	1.7	58	-9.6	1	2	248	0.00	30.372 
21:15	1.5	1.5	1.5	58	-9.8	0	1	248	0.00	30.372 
21:20	1.5	1.5	1.5	58	-9.8	0	2	248	0.00	30.372 
21:25	1.3	1.3	1.3	58	-10.0	0	2	248	0.00	30.372 
21:30	1.3	1.3	1.3	58	-10.0	0	2	248	0.00	30.376 
21:35	1.3	1.3	1.3	58	-10.0	0	2	248	0.00	30.376 
21:40	1.1	1.1	1.1	58	-10.2	0	2	248	0.00	30.376 
21:45	1.1	1.1	1.1	58	-10.2	1	3	248	0.00	30.376 
21:50	1.1	1.1	1.1	58	-10.2	0	2	248	0.00	30.376 
21:55	1.1	1.1	1.1	58	-10.2	1	3	248	0.00	30.376 
22:00	0.9	0.9	0.9	58	-10.4	0	2	248	0.00	30.379 
22:05	0.9	0.9	0.9	58	-10.4	0	2	248	0.00	30.379 
22:10	0.9	0.9	0.9	58	-10.4	0	2	248	0.00	30.379 
22:15	0.7	0.7	0.7	58	-10.6	0	1	248	0.00	30.381 
22:20	0.7	0.7	0.7	58	-10.6	1	2	248	0.00	30.381 
22:25	0.7	0.7	0.7	58	-10.6	0	1	248	0.00	30.381 
22:30	0.9	0.9	0.9	58	-10.4	0	2	248	0.00	30.385 
22:35	0.9	0.9	0.9	58	-10.4	0	2	248	0.00	30.385 
22:40	1.1	1.1	1.1	58	-10.2	0	1	248	0.00	30.385 
22:45	1.1	1.1	1.1	58	-10.2	0	2	248	0.00	30.386 
22:50	1.1	1.1	1.1	58	-10.2	1	3	248	0.00	30.386 
22:55	1.1	1.1	1.1	58	-10.2	0	2	248	0.00	30.386 
23:00	1.1	1.1	1.1	58	-10.2	0	1	248	0.00	30.390 
23:05	1.1	1.1	1.1	59	-9.8	0	2	248	0.00	30.390 
23:10	1.1	1.1	1.1	59	-9.8	0	1	248	0.00	30.390 
23:15	1.1	1.1	1.1	59	-9.8	0	2	248	0.00	30.396 
23:20	1.1	1.1	1.1	58	-10.2	1	2	248	0.00	30.396 
23:25	1.3	1.3	1.3	58	-10.0	0	2	248	0.00	30.396 
23:30	1.3	1.3	1.3	58	-10.0	0	1	248	0.00	30.398 
23:35	1.3	1.3	1.3	58	-10.0	0	3	248	0.00	30.398 
23:40	1.3	1.3	1.3	58	-10.0	0	2	248	0.00	30.398 
23:45	1.3	1.3	1.3	58	-10.0	0	2	248	0.00	30.405 
23:50	1.3	1.3	1.3	58	-10.0	0	3	248	0.00	30.405 
23:55	1.3	1.3	1.3	58	-10.0	0	2	248	0.00	30.405 

CoCoRaHS
IN-AL-39
A2 Web Hosting
Creative Commons License
GoDaddy
search engine by freefind advanced

loaded 2018-11-22 06:45:09 • last modified 2010-11-18 10:43:29
Privacy PolicyDisclaimer
• wx.awcolley.com is powered by PmWiki v.2002016 •
• all content (unless otherwise noted) © 2018 A W Colley